createdAt,value
2023-01-08T00:00:03.907Z,91.29
2023-01-08T00:02:31.496Z,91.29
2023-01-08T00:04:59.144Z,91.93
2023-01-08T00:07:26.783Z,91.39
2023-01-08T00:09:54.988Z,90.74
2023-01-08T00:12:22.520Z,90.21
2023-01-08T00:14:51.479Z,89.94
2023-01-08T00:17:19.138Z,90.25
2023-01-08T00:19:46.769Z,89.92
2023-01-08T00:22:14.295Z,90.23
2023-01-08T00:24:42.020Z,89.66
2023-01-08T00:27:09.779Z,89.82
2023-01-08T00:29:37.552Z,89.35
2023-01-08T00:32:06.657Z,89.55
2023-01-08T00:34:34.272Z,89.39
2023-01-08T00:37:01.804Z,89.90
2023-01-08T00:39:29.401Z,89.91
2023-01-08T00:41:57.077Z,89.47
2023-01-08T00:44:24.735Z,89.50
2023-01-08T00:46:52.399Z,89.37
2023-01-08T00:49:21.264Z,89.74
2023-01-08T00:51:49.000Z,89.96
2023-01-08T00:54:16.554Z,89.66
2023-01-08T00:56:44.134Z,89.17
2023-01-08T00:59:11.720Z,89.36
2023-01-08T01:01:39.465Z,89.14
2023-01-08T01:04:07.125Z,89.57
2023-01-08T01:06:35.992Z,88.53
2023-01-08T01:09:03.561Z,88.67
2023-01-08T01:11:31.167Z,88.76
2023-01-08T01:13:58.686Z,89.19
2023-01-08T01:16:26.816Z,89.34
2023-01-08T01:18:56.549Z,88.37
2023-01-08T01:21:26.286Z,87.89
2023-01-08T01:23:56.823Z,87.53
2023-01-08T01:26:24.970Z,87.19
2023-01-08T01:28:54.181Z,86.86
2023-01-08T01:31:22.416Z,86.79
2023-01-08T01:33:50.715Z,86.44
2023-01-08T01:36:19.889Z,86.18
2023-01-08T01:38:48.821Z,85.72
2023-01-08T01:41:25.124Z,85.76
2023-01-08T01:43:52.636Z,85.25
2023-01-08T01:46:25.068Z,85.57
2023-01-08T01:48:54.546Z,85.81
2023-01-08T01:51:22.607Z,85.25
2023-01-08T01:53:50.617Z,85.84
2023-01-08T01:56:19.556Z,85.60
2023-01-08T01:58:47.039Z,85.19
2023-01-08T02:01:14.841Z,84.43
2023-01-08T02:03:42.438Z,85.40
2023-01-08T02:06:17.492Z,85.41
2023-01-08T02:08:52.074Z,84.54
2023-01-08T02:11:38.778Z,85.25
2023-01-08T02:14:09.175Z,85.82
2023-01-08T02:16:41.452Z,86.45
2023-01-08T02:19:15.236Z,86.01
2023-01-08T02:21:51.504Z,85.67
2023-01-08T02:24:25.299Z,85.77
2023-01-08T02:26:54.920Z,84.98
2023-01-08T02:29:24.990Z,85.80
2023-01-08T02:31:52.693Z,86.53
2023-01-08T02:34:20.139Z,87.84
2023-01-08T02:36:48.643Z,88.11
2023-01-08T02:39:23.051Z,88.88
2023-01-08T02:42:01.299Z,89.92
2023-01-08T02:44:37.543Z,91.37
2023-01-08T02:47:07.086Z,92.00
2023-01-08T02:49:36.510Z,92.70
2023-01-08T02:52:05.630Z,92.50
2023-01-08T02:54:35.520Z,93.70
2023-01-08T02:57:08.072Z,94.20
2023-01-08T02:59:36.991Z,94.45
2023-01-08T03:02:04.867Z,94.64
2023-01-08T03:04:36.886Z,95.28
2023-01-08T03:07:04.467Z,95.70
2023-01-08T03:09:32.495Z,95.83
2023-01-08T03:12:03.459Z,96.02
2023-01-08T03:14:38.559Z,96.23
2023-01-08T03:17:08.219Z,96.69
2023-01-08T03:19:39.536Z,96.99
2023-01-08T03:22:09.174Z,97.05
2023-01-08T03:24:38.650Z,97.11
2023-01-08T03:27:08.362Z,98.15
2023-01-08T03:29:37.539Z,97.38
2023-01-08T03:32:07.055Z,96.90
2023-01-08T03:34:37.887Z,97.10
2023-01-08T03:37:08.461Z,97.18
2023-01-08T03:39:41.172Z,98.09
2023-01-08T03:42:11.358Z,98.62
2023-01-08T03:44:40.146Z,98.47
2023-01-08T03:47:09.021Z,98.65
2023-01-08T03:49:37.056Z,99.04
2023-01-08T03:52:04.688Z,99.34
2023-01-08T03:54:33.572Z,99.08
2023-01-08T03:57:01.068Z,98.38
2023-01-08T03:59:28.584Z,98.50
2023-01-08T04:01:57.403Z,98.92
2023-01-08T04:04:24.950Z,99.05
2023-01-08T04:06:53.222Z,99.21
2023-01-08T04:09:20.956Z,98.81
2023-01-08T04:11:48.445Z,99.27
2023-01-08T04:14:15.880Z,98.68
2023-01-08T04:16:43.307Z,99.18
2023-01-08T04:19:13.011Z,99.10
2023-01-08T04:21:40.709Z,99.32
2023-01-08T04:24:08.755Z,99.97
2023-01-08T04:26:36.200Z,99.85
2023-01-08T04:29:03.998Z,99.63
2023-01-08T04:31:31.731Z,100.00
2023-01-08T04:33:59.290Z,99.34
2023-01-08T04:36:28.107Z,100.00
2023-01-08T04:38:55.544Z,100.00
2023-01-08T04:41:23.010Z,100.00
2023-01-08T04:43:50.424Z,99.87
2023-01-08T04:46:17.876Z,99.46
2023-01-08T04:48:45.382Z,100.00
2023-01-08T04:51:12.853Z,100.00
2023-01-08T04:53:41.648Z,100.00
2023-01-08T04:56:10.591Z,100.00
2023-01-08T04:58:38.861Z,100.00
2023-01-08T05:01:11.452Z,100.00
2023-01-08T05:03:38.964Z,100.00
2023-01-08T05:06:07.310Z,100.00
2023-01-08T05:08:34.820Z,100.00
2023-01-08T05:11:04.214Z,100.00
2023-01-08T05:13:31.834Z,100.00
2023-01-08T05:16:00.404Z,100.00
2023-01-08T05:18:28.139Z,100.00
2023-01-08T05:20:55.827Z,100.00
2023-01-08T05:23:23.238Z,100.00
2023-01-08T05:25:50.669Z,100.00
2023-01-08T05:28:19.421Z,100.00
2023-01-08T05:30:46.857Z,100.00
2023-01-08T05:33:14.277Z,100.00
2023-01-08T05:35:41.763Z,100.00
2023-01-08T05:38:09.165Z,100.00
2023-01-08T05:40:36.704Z,100.00
2023-01-08T05:43:05.222Z,100.00
2023-01-08T05:45:34.478Z,100.00
2023-01-08T05:48:05.873Z,100.00
2023-01-08T05:50:33.468Z,100.00
2023-01-08T05:53:00.894Z,100.00
2023-01-08T05:55:28.352Z,100.00
2023-01-08T05:57:55.779Z,100.00
2023-01-08T06:00:24.342Z,100.00
2023-01-08T06:02:53.218Z,100.00
2023-01-08T06:05:20.718Z,100.00
2023-01-08T06:07:48.135Z,100.00
2023-01-08T06:10:15.808Z,100.00
2023-01-08T06:12:43.352Z,100.00
2023-01-08T06:15:12.639Z,100.00
2023-01-08T06:17:40.061Z,100.00
2023-01-08T06:20:10.100Z,100.00
2023-01-08T06:22:37.722Z,100.00
2023-01-08T06:25:05.793Z,100.00
2023-01-08T06:27:33.227Z,100.00
2023-01-08T06:30:00.666Z,100.00
2023-01-08T06:32:28.107Z,100.00
2023-01-08T06:34:55.574Z,100.00
2023-01-08T06:37:24.383Z,100.00
2023-01-08T06:39:51.854Z,100.00
2023-01-08T06:42:19.279Z,100.00
2023-01-08T06:44:46.737Z,100.00
2023-01-08T06:47:14.260Z,100.00
2023-01-08T06:49:41.762Z,100.00
2023-01-08T06:52:09.209Z,100.00
2023-01-08T06:54:37.992Z,100.00
2023-01-08T06:57:05.442Z,100.00
2023-01-08T06:59:32.853Z,100.00
2023-01-08T07:02:00.454Z,100.00
2023-01-08T07:04:27.988Z,100.00
2023-01-08T07:06:55.563Z,100.00
2023-01-08T07:09:22.968Z,100.00
2023-01-08T07:11:54.530Z,100.00
2023-01-08T07:14:22.156Z,100.00
2023-01-08T07:16:49.587Z,100.00
2023-01-08T07:19:17.024Z,100.00
2023-01-08T07:21:44.491Z,100.00
2023-01-08T07:24:12.037Z,100.00
2023-01-08T07:26:40.347Z,100.00
2023-01-08T07:29:09.327Z,100.00
2023-01-08T07:31:36.973Z,100.00
2023-01-08T07:34:04.602Z,100.00
2023-01-08T07:36:32.206Z,100.00
2023-01-08T07:38:59.759Z,100.00
2023-01-08T07:41:27.423Z,100.00
2023-01-08T07:43:54.951Z,100.00
2023-01-08T07:46:23.941Z,100.00
2023-01-08T07:48:51.610Z,100.00
2023-01-08T07:51:20.892Z,100.00
2023-01-08T07:53:48.411Z,100.00
2023-01-08T07:56:16.058Z,100.00
2023-01-08T07:58:43.653Z,100.00
2023-01-08T08:01:12.399Z,100.00
2023-01-08T08:03:41.741Z,100.00
2023-01-08T08:06:09.576Z,100.00
2023-01-08T08:08:37.281Z,100.00
2023-01-08T08:11:05.068Z,100.00
2023-01-08T08:13:32.730Z,100.00
2023-01-08T08:16:03.894Z,100.00
2023-01-08T08:18:31.683Z,100.00
2023-01-08T08:21:00.540Z,100.00
2023-01-08T08:23:28.110Z,100.00
2023-01-08T08:25:55.578Z,100.00
2023-01-08T08:28:23.137Z,100.00
2023-01-08T08:30:52.516Z,100.00
2023-01-08T08:33:20.061Z,100.00
2023-01-08T08:35:50.559Z,100.00
2023-01-08T08:38:19.512Z,100.00
2023-01-08T08:40:47.051Z,100.00
2023-01-08T08:43:14.619Z,100.00
2023-01-08T08:45:42.556Z,100.00
2023-01-08T08:48:12.092Z,100.00
2023-01-08T08:50:39.807Z,100.00
2023-01-08T08:53:07.803Z,100.00
2023-01-08T08:55:36.752Z,100.00
2023-01-08T08:58:06.206Z,100.00
2023-01-08T09:00:34.450Z,100.00
2023-01-08T09:03:02.214Z,100.00
2023-01-08T09:05:30.193Z,100.00
2023-01-08T09:07:58.063Z,100.00
2023-01-08T09:10:25.667Z,100.00
2023-01-08T09:12:55.193Z,100.00
2023-01-08T09:15:23.151Z,100.00
2023-01-08T09:17:55.049Z,100.00
2023-01-08T09:20:22.987Z,100.00
2023-01-08T09:22:50.522Z,100.00
2023-01-08T09:25:18.313Z,100.00
2023-01-08T09:27:45.933Z,100.00
2023-01-08T09:30:14.962Z,100.00
2023-01-08T09:32:42.488Z,100.00
2023-01-08T09:35:10.464Z,100.00
2023-01-08T09:37:38.126Z,100.00
2023-01-08T09:40:06.560Z,100.00
2023-01-08T09:42:35.387Z,100.00
2023-01-08T09:45:03.594Z,100.00
2023-01-08T09:47:35.394Z,100.00
2023-01-08T09:50:05.801Z,100.00
2023-01-08T09:52:33.591Z,100.00
2023-01-08T09:55:01.346Z,100.00
2023-01-08T09:57:29.992Z,100.00
2023-01-08T09:59:57.700Z,100.00
2023-01-08T10:02:26.664Z,100.00
2023-01-08T10:04:57.661Z,100.00
2023-01-08T10:07:26.419Z,100.00
2023-01-08T10:09:54.801Z,100.00
2023-01-08T10:12:27.128Z,100.00
2023-01-08T10:14:56.178Z,100.00
2023-01-08T10:17:28.122Z,100.00
2023-01-08T10:19:56.927Z,100.00
2023-01-08T10:22:25.980Z,100.00
2023-01-08T10:24:53.615Z,100.00
2023-01-08T10:27:23.191Z,100.00
2023-01-08T10:29:51.173Z,100.00
2023-01-08T10:32:20.689Z,100.00
2023-01-08T10:34:50.334Z,100.00
2023-01-08T10:37:24.920Z,100.00
2023-01-08T10:39:53.067Z,100.00
2023-01-08T10:42:22.163Z,100.00
2023-01-08T10:44:55.179Z,100.00
2023-01-08T10:47:23.153Z,100.00
2023-01-08T10:49:50.653Z,100.00
2023-01-08T10:52:27.414Z,100.00
2023-01-08T10:54:55.532Z,100.00
2023-01-08T10:57:25.496Z,100.00
2023-01-08T10:59:53.017Z,100.00
2023-01-08T11:02:30.732Z,100.00
2023-01-08T11:04:59.865Z,100.00
2023-01-08T11:07:29.011Z,100.00
2023-01-08T11:10:53.323Z,100.00
2023-01-08T11:13:20.884Z,100.00
2023-01-08T11:16:01.013Z,100.00
2023-01-08T11:18:29.080Z,100.00
2023-01-08T11:21:09.200Z,100.00
2023-01-08T11:23:38.022Z,100.00
2023-01-08T11:26:08.109Z,99.98
2023-01-08T11:28:45.477Z,100.00
2023-01-08T11:31:15.886Z,99.79
2023-01-08T11:33:43.518Z,99.45
2023-01-08T11:36:16.785Z,99.19
2023-01-08T11:38:45.633Z,99.09
2023-01-08T11:41:25.656Z,99.25
2023-01-08T11:44:05.551Z,100.00
2023-01-08T11:46:38.241Z,100.00
2023-01-08T11:49:22.927Z,99.47
2023-01-08T11:52:01.714Z,99.43
2023-01-08T11:54:42.867Z,99.13
2023-01-08T11:57:19.408Z,98.95
2023-01-08T11:59:57.110Z,98.93
2023-01-08T12:02:32.261Z,99.36
2023-01-08T12:05:26.587Z,99.13
2023-01-08T12:08:01.253Z,98.58
2023-01-08T12:10:38.052Z,98.66
2023-01-08T12:13:26.290Z,99.17
2023-01-08T12:16:03.590Z,98.44
2023-01-08T12:18:37.288Z,98.17
2023-01-08T12:21:12.211Z,98.28
2023-01-08T12:23:50.478Z,98.39
2023-01-08T12:26:28.345Z,97.37
2023-01-08T12:29:33.487Z,96.96
2023-01-08T12:32:21.678Z,96.95
2023-01-08T12:34:55.430Z,97.06
2023-01-08T12:37:28.162Z,98.06
2023-01-08T12:40:02.097Z,97.34
2023-01-08T12:42:31.870Z,96.84
2023-01-08T12:45:01.812Z,97.83
2023-01-08T12:47:32.088Z,97.54
2023-01-08T12:50:09.325Z,96.61
2023-01-08T12:52:41.856Z,96.47
2023-01-08T12:55:18.500Z,96.13
2023-01-08T12:57:51.411Z,94.92
2023-01-08T13:00:24.102Z,95.77
2023-01-08T13:02:55.179Z,95.79
2023-01-08T13:05:34.699Z,94.66
2023-01-08T13:08:04.684Z,94.84
2023-01-08T13:10:37.605Z,93.81
2023-01-08T13:13:07.221Z,94.97
2023-01-08T13:15:35.266Z,94.69
2023-01-08T13:18:08.387Z,94.24
2023-01-08T13:20:36.143Z,94.26
2023-01-08T13:23:05.631Z,94.58
2023-01-08T13:25:35.326Z,94.47
2023-01-08T13:28:06.286Z,94.11
2023-01-08T13:30:40.619Z,94.79
2023-01-08T13:33:37.072Z,93.63
2023-01-08T13:36:23.905Z,94.51
2023-01-08T13:39:02.621Z,94.09
2023-01-08T13:41:31.425Z,93.79
2023-01-08T13:44:05.189Z,94.10
2023-01-08T13:46:36.912Z,94.50
2023-01-08T13:49:05.714Z,93.23
2023-01-08T13:51:40.829Z,94.58
2023-01-08T13:54:19.702Z,93.67
2023-01-08T13:56:48.852Z,94.51
2023-01-08T13:59:22.487Z,93.80
2023-01-08T14:01:55.407Z,93.51
2023-01-08T14:04:23.551Z,92.85
2023-01-08T14:06:51.060Z,92.87
2023-01-08T14:09:22.893Z,93.62
2023-01-08T14:11:51.590Z,93.80
2023-01-08T14:14:21.128Z,93.60
2023-01-08T14:16:49.752Z,93.92
2023-01-08T14:19:21.781Z,93.50
2023-01-08T14:21:50.574Z,93.86
2023-01-08T14:24:19.668Z,94.19
2023-01-08T14:26:53.189Z,93.89
2023-01-08T14:29:22.327Z,93.50
2023-01-08T14:31:51.703Z,93.40
2023-01-08T14:34:21.596Z,93.42
2023-01-08T14:36:50.346Z,93.51
2023-01-08T14:39:23.447Z,92.95
2023-01-08T14:42:09.853Z,93.21
2023-01-08T14:44:42.044Z,93.03
2023-01-08T14:47:16.767Z,92.99
2023-01-08T14:49:56.359Z,92.95
2023-01-08T14:52:26.454Z,92.81
2023-01-08T14:54:56.324Z,93.53
2023-01-08T14:57:24.437Z,92.95
2023-01-08T14:59:56.242Z,93.23
2023-01-08T15:02:28.078Z,93.85
2023-01-08T15:05:05.545Z,94.33
2023-01-08T15:07:33.067Z,93.61
2023-01-08T15:10:02.476Z,93.18
2023-01-08T15:12:32.308Z,94.00
2023-01-08T15:15:10.592Z,94.28
2023-01-08T15:17:41.247Z,94.67
2023-01-08T15:20:17.737Z,94.88
2023-01-08T15:22:46.100Z,94.71
2023-01-08T15:25:17.362Z,94.65
2023-01-08T15:27:53.232Z,94.13
2023-01-08T15:30:25.963Z,95.56
2023-01-08T15:32:53.666Z,95.60
2023-01-08T15:35:25.676Z,95.61
2023-01-08T15:37:53.205Z,95.19
2023-01-08T15:40:20.760Z,95.22
2023-01-08T15:43:11.523Z,95.81
2023-01-08T15:45:40.571Z,95.55
2023-01-08T15:48:08.667Z,95.64
2023-01-08T15:50:38.793Z,96.47
2023-01-08T15:53:08.580Z,95.44
2023-01-08T15:55:37.507Z,95.97
2023-01-08T15:58:05.055Z,95.81
2023-01-08T16:00:33.879Z,96.21
2023-01-08T16:03:01.435Z,96.20
2023-01-08T16:05:30.156Z,95.36
2023-01-08T16:07:59.062Z,95.05
2023-01-08T16:10:28.967Z,95.52
2023-01-08T16:12:56.538Z,94.73
2023-01-08T16:15:24.293Z,95.37
2023-01-08T16:17:52.084Z,95.00
2023-01-08T16:20:19.661Z,94.84
2023-01-08T16:22:47.383Z,95.14
2023-01-08T16:25:16.206Z,94.67
2023-01-08T16:27:43.759Z,94.71
2023-01-08T16:30:14.508Z,94.47
2023-01-08T16:32:42.379Z,94.89
2023-01-08T16:35:10.543Z,95.63
2023-01-08T16:37:38.609Z,95.31
2023-01-08T16:40:07.575Z,95.35
2023-01-08T16:42:36.856Z,95.32
2023-01-08T16:45:05.085Z,94.65
2023-01-08T16:47:32.870Z,94.91
2023-01-08T16:50:00.494Z,95.30
2023-01-08T16:52:28.068Z,95.13
2023-01-08T16:54:55.590Z,94.97
2023-01-08T16:57:23.106Z,94.64
2023-01-08T16:59:52.055Z,94.62
2023-01-08T17:02:20.250Z,94.66
2023-01-08T17:04:47.782Z,94.32
2023-01-08T17:07:15.396Z,94.60
2023-01-08T17:09:43.133Z,94.61
2023-01-08T17:12:10.707Z,94.54
2023-01-08T17:14:38.251Z,94.91
2023-01-08T17:17:07.143Z,94.74
2023-01-08T17:19:34.699Z,94.45
2023-01-08T17:22:02.228Z,94.78
2023-01-08T17:24:29.791Z,95.16
2023-01-08T17:26:58.404Z,95.26
2023-01-08T17:29:26.001Z,95.00
2023-01-08T17:31:53.526Z,95.03
2023-01-08T17:34:22.480Z,94.75
2023-01-08T17:36:50.057Z,94.23
2023-01-08T17:39:18.312Z,94.24
2023-01-08T17:42:03.633Z,94.04
2023-01-08T17:44:31.229Z,94.22
2023-01-08T17:46:58.883Z,93.28
2023-01-08T17:49:27.838Z,94.14
2023-01-08T17:51:56.940Z,93.75
2023-01-08T17:54:25.059Z,94.36
2023-01-08T17:56:53.555Z,93.94
2023-01-08T17:59:21.682Z,93.67
2023-01-08T18:01:49.586Z,93.30
2023-01-08T18:04:17.705Z,93.01
2023-01-08T18:06:46.811Z,92.91
2023-01-08T18:09:14.413Z,92.83
2023-01-08T18:11:43.042Z,92.34
2023-01-08T18:14:11.859Z,92.96
2023-01-08T18:16:39.710Z,92.90
2023-01-08T18:19:07.641Z,93.60
2023-01-08T18:21:35.229Z,93.29
2023-01-08T18:24:04.199Z,92.71
2023-01-08T18:26:31.809Z,92.90
2023-01-08T18:28:59.341Z,93.53
2023-01-08T18:31:26.958Z,92.83
2023-01-08T18:33:54.572Z,93.29
2023-01-08T18:36:22.843Z,93.49
2023-01-08T18:38:50.972Z,93.74
2023-01-08T18:41:34.921Z,93.94
2023-01-08T18:44:02.909Z,94.04
2023-01-08T18:46:30.935Z,94.23
2023-01-08T18:48:58.534Z,94.76
2023-01-08T18:51:26.323Z,94.28
2023-01-08T18:53:55.559Z,93.94
2023-01-08T18:56:28.989Z,93.76
2023-01-08T18:58:56.790Z,93.66
2023-01-08T19:01:24.583Z,93.14
2023-01-08T19:03:52.170Z,93.24
2023-01-08T19:06:19.888Z,93.31
2023-01-08T19:08:47.452Z,93.16
2023-01-08T19:11:15.286Z,92.51
2023-01-08T19:13:44.164Z,92.98
2023-01-08T19:16:14.359Z,93.17
2023-01-08T19:18:42.259Z,93.12
2023-01-08T19:21:13.391Z,92.95
2023-01-08T19:23:41.297Z,93.02
2023-01-08T19:26:09.219Z,92.74
2023-01-08T19:28:37.126Z,92.27
2023-01-08T19:31:06.378Z,92.54
2023-01-08T19:33:33.907Z,92.14
2023-01-08T19:36:03.138Z,92.37
2023-01-08T19:38:30.709Z,92.41
2023-01-08T19:41:00.076Z,92.05
2023-01-08T19:43:42.186Z,90.97
2023-01-08T19:46:11.788Z,91.71
2023-01-08T19:48:40.725Z,92.01
2023-01-08T19:51:09.114Z,91.78
2023-01-08T19:53:36.697Z,91.86
2023-01-08T19:56:05.094Z,91.88
2023-01-08T19:58:32.641Z,91.90
2023-01-08T20:01:00.349Z,91.31
2023-01-08T20:03:29.663Z,91.12
2023-01-08T20:05:57.308Z,90.56
2023-01-08T20:08:24.888Z,90.42
2023-01-08T20:10:52.423Z,90.62
2023-01-08T20:13:20.076Z,90.43
2023-01-08T20:15:56.449Z,89.58
2023-01-08T20:18:23.986Z,90.11
2023-01-08T20:20:52.984Z,90.65
2023-01-08T20:23:20.947Z,89.81
2023-01-08T20:25:49.229Z,90.29
2023-01-08T20:28:16.778Z,90.55
2023-01-08T20:30:44.400Z,90.42
2023-01-08T20:33:13.044Z,90.39
2023-01-08T20:35:43.112Z,89.88
2023-01-08T20:38:12.083Z,90.30
2023-01-08T20:40:39.637Z,89.74
2023-01-08T20:43:07.195Z,90.12
2023-01-08T20:45:34.769Z,90.03
2023-01-08T20:48:02.319Z,89.68
2023-01-08T20:50:29.926Z,90.08
2023-01-08T20:52:57.460Z,89.62
2023-01-08T20:55:26.429Z,89.79
2023-01-08T20:57:53.966Z,90.51
2023-01-08T21:00:22.074Z,89.88
2023-01-08T21:02:49.675Z,89.92
2023-01-08T21:05:17.284Z,89.62
2023-01-08T21:07:44.864Z,89.77
2023-01-08T21:10:13.030Z,89.32
2023-01-08T21:12:44.613Z,89.53
2023-01-08T21:15:12.778Z,90.35
2023-01-08T21:17:40.529Z,90.05
2023-01-08T21:20:09.199Z,90.89
2023-01-08T21:22:36.963Z,91.02
2023-01-08T21:25:06.047Z,91.63
2023-01-08T21:27:33.605Z,91.79
2023-01-08T21:30:03.925Z,91.93
2023-01-08T21:32:31.682Z,91.22
2023-01-08T21:34:59.275Z,91.27
2023-01-08T21:37:26.815Z,91.42
2023-01-08T21:39:54.357Z,91.01
2023-01-08T21:42:39.585Z,90.91
2023-01-08T21:45:29.358Z,91.29
2023-01-08T21:47:58.664Z,91.23
2023-01-08T21:50:26.487Z,90.36
2023-01-08T21:53:11.730Z,90.95
2023-01-08T21:55:39.554Z,91.66
2023-01-08T21:58:07.079Z,91.21
2023-01-08T22:00:36.037Z,91.29
2023-01-08T22:03:03.718Z,90.46
2023-01-08T22:05:31.337Z,89.87
2023-01-08T22:07:58.901Z,90.05
2023-01-08T22:10:26.416Z,89.41
2023-01-08T22:12:53.866Z,89.80
2023-01-08T22:15:21.309Z,89.25
2023-01-08T22:17:50.114Z,88.50
2023-01-08T22:20:17.980Z,89.26
2023-01-08T22:22:47.081Z,89.46
2023-01-08T22:25:14.782Z,89.50
2023-01-08T22:27:42.609Z,90.07
2023-01-08T22:30:11.593Z,90.46
2023-01-08T22:32:39.261Z,91.45
2023-01-08T22:35:08.682Z,92.07
2023-01-08T22:37:36.693Z,91.62
2023-01-08T22:40:04.467Z,92.53
2023-01-08T22:42:32.047Z,91.74
2023-01-08T22:44:59.565Z,92.40
2023-01-08T22:47:27.171Z,92.60
2023-01-08T22:49:54.710Z,92.55
2023-01-08T22:52:23.703Z,92.89
2023-01-08T22:54:54.188Z,92.74
2023-01-08T22:57:21.749Z,93.20
2023-01-08T22:59:49.369Z,92.96
2023-01-08T23:02:24.028Z,93.44
2023-01-08T23:04:51.844Z,94.05
2023-01-08T23:07:19.964Z,95.40
2023-01-08T23:09:49.188Z,96.55
2023-01-08T23:12:16.749Z,97.01
2023-01-08T23:14:44.392Z,97.27
2023-01-08T23:17:12.037Z,97.81
2023-01-08T23:19:39.663Z,98.34
2023-01-08T23:22:07.219Z,98.66
2023-01-08T23:24:34.845Z,99.04
2023-01-08T23:27:03.815Z,99.49
2023-01-08T23:29:32.045Z,99.54
2023-01-08T23:31:59.738Z,99.75
2023-01-08T23:34:28.642Z,100.00
2023-01-08T23:36:56.126Z,100.00
2023-01-08T23:39:26.567Z,100.00
2023-01-08T23:41:54.219Z,99.76
2023-01-08T23:44:23.361Z,99.46
2023-01-08T23:46:54.453Z,99.56
2023-01-08T23:49:22.190Z,99.51
2023-01-08T23:51:49.782Z,100.00
2023-01-08T23:54:26.171Z,99.85
2023-01-08T23:56:54.024Z,99.99
2023-01-08T23:59:22.832Z,100.00
